METAR Data
IDs: Format: Raw Decoded Include TAF

Data at: 0514 UTC 24 Sep 2018

KRNC 240455Z AUTO 00000KT 10SM FEW005 BKN060 OVC075 21/20 A3007 RMK A01
KRNC 240435Z AUTO 00000KT 9SM SCT004 OVC060 21/20 A3006 RMK A01
KRNC 240415Z AUTO 08005KT 9SM SCT004 OVC065 21/20 A3007 RMK A01
KRNC 240355Z AUTO 08005KT 10SM BKN065 OVC075 21/20 A3007 RMK A01 P0001
KRNC 240335Z AUTO 10004KT 6SM BR SCT036 BKN070 OVC110 21/21 A3008 RMK A01
KRNC 240315Z AUTO 07004KT 3SM BR SCT034 BKN045 OVC110 21/21 A3008 RMK A01
KRNC 240255Z AUTO 00000KT 4SM BR FEW033 BKN045 OVC055 21/21 A3008 RMK A01 P0006
KRNC 240235Z AUTO 00000KT 5SM BR BKN047 OVC055 21/21 A3008 RMK A01
KRNC 240215Z AUTO 00000KT 6SM BR FEW035 SCT046 BKN050 21/21 A3008 RMK A01
KRNC 240155Z AUTO 00000KT 8SM BKN050 BKN055 OVC070 22/21 A3008 RMK A01 P0001
KRNC 240135Z AUTO 08004KT 10SM FEW047 SCT060 BKN070 22/20 A3006 RMK A01
KRNC 240115Z AUTO 00000KT 9SM FEW046 BKN060 OVC080 22/21 A3005 RMK A01
KRNC 240055Z AUTO 00000KT 10SM SCT060 OVC075 22/21 A3005 RMK A01
KRNC 240035Z AUTO 00000KT 9SM FEW055 BKN070 OVC080 22/21 A3004 RMK A01
KRNC 240015Z AUTO 00000KT 9SM FEW026 FEW055 BKN080 22/21 A3004 RMK A01
KRNC 232355Z AUTO 00000KT 8SM FEW003 SCT034 BKN090 22/22 A3004 RMK A01 P0001
KRNC 232335Z AUTO 05003KT 8SM FEW003 SCT041 BKN110 22/22 A3004 RMK A01
KRNC 232315Z AUTO 00000KT 8SM SCT004 SCT041 OVC100 22/22 A3004 RMK A01
KRNC 232255Z AUTO 06003KT 7SM FEW003 FEW060 BKN095 22/22 A3004 RMK A01 P0002
KRNC 232235Z AUTO 05003KT 7SM CLR 22/22 A3004 RMK A01
KRNC 232215Z AUTO 04003KT 5SM BR CLR 22/22 A3004 RMK A01
KRNC 232155Z AUTO 00000KT 6SM BR FEW040 FEW050 SCT080 22/22 A3004 RMK A01 P0003
KRNC 232135Z AUTO 00000KT 6SM BR FEW041 SCT065 BKN080 22/22 A3005 RMK A01
KRNC 232115Z AUTO 00000KT 10SM BKN070 BKN085 BKN110 22/21 A3005 RMK A01
KRNC 232055Z AUTO 08003KT 10SM FEW007 BKN070 BKN100 22/21 A3004 RMK A01
KRNC 232035Z AUTO 08005KT 9SM SCT007 SCT011 BKN085 22/21 A3004 RMK A01
KRNC 232015Z AUTO 10004KT 10SM SCT007 SCT085 BKN110 23/22 A3005 RMK A01
KRNC 231955Z AUTO 09005KT 10SM SCT110 23/22 A3004 RMK A01 P0001
KRNC 231935Z AUTO 08006KT 7SM FEW008 SCT012 BKN020 23/22 A3004 RMK A01
KRNC 231915Z AUTO 00000KT 10SM SCT009 BKN012 OVC021 23/21 A3005 RMK A01
KRNC 231855Z AUTO 07003KT 10SM BKN009 OVC014 23/21 A3006 RMK A01
KRNC 231835Z AUTO 05003KT 10SM SCT008 BKN011 OVC021 23/21 A3007 RMK A01
KRNC 231815Z AUTO 35005KT 10SM SCT007 SCT011 OVC020 23/21 A3007 RMK A01
KRNC 231755Z AUTO 36005KT 10SM SCT007 BKN019 OVC025 23/22 A3008 RMK A01
KRNC 231735Z AUTO 36007KT 10SM SCT006 BKN015 OVC020 23/22 A3007 RMK A01
KRNC 231715Z AUTO 02007KT 10SM FEW007 SCT015 23/22 A3008 RMK A01
KRNC 231655Z AUTO 02006KT 8SM FEW013 23/22 A3008 RMK A01 P0001
KRNC 231635Z AUTO 01006KT 7SM FEW005 FEW009 BKN013 23/22 A3008 RMK A01
KRNC 231615Z AUTO 36007KT 5SM BR BKN009 BKN012 BKN017 23/22 A3008 RMK A01
KRNC 231555Z AUTO 35007KT 9SM SCT009 SCT012 BKN031 23/22 A3008 RMK A01
KRNC 231535Z AUTO 08004KT 10SM FEW032 FEW095 24/22 A3007 RMK A01
KRNC 231515Z AUTO 09004KT 10SM CLR 23/22 A3007 RMK A01
KRNC 231455Z AUTO 09003KT 10SM SCT060 SCT080 SCT110 23/22 A3007 RMK A01
KRNC 231435Z AUTO 08004KT 10SM FEW004 SCT060 BKN075 22/22 A3007 RMK A01
KRNC 231415Z AUTO 00000KT 10SM FEW003 BKN034 BKN075 22/21 A3007 RMK A01
KRNC 231355Z AUTO 00000KT 10SM BKN033 OVC080 22/21 A3007 RMK A01
KRNC 231335Z AUTO 00000KT 10SM BKN031 BKN085 BKN100 22/21 A3006 RMK A01
KRNC 231315Z AUTO 00000KT 9SM FEW035 SCT085 BKN100 22/21 A3006 RMK A01
KRNC 231255Z AUTO 00000KT 9SM SCT035 BKN080 BKN095 21/21 A3005 RMK A01 P0004
KRNC 231235Z AUTO 04003KT 8SM FEW044 FEW060 SCT075 21/21 A3005 RMK A01
KRNC 231215Z AUTO 09003KT 2 1/2SM BR FEW013 SCT029 BKN040 21/21 A3005 RMK A01
KRNC 231155Z AUTO 00000KT 9SM SCT015 OVC031 21/20 A3005 RMK A01
KRNC 231135Z AUTO 00000KT 10SM BKN033 OVC039 21/20 A3004 RMK A01
KRNC 231115Z AUTO 00000KT 10SM BKN040 OVC095 21/20 A3003 RMK A01
KRNC 231055Z AUTO 31003KT 10SM FEW036 BKN043 OVC085 21/20 A3003 RMK A01
KRNC 231035Z AUTO 26004KT 10SM BKN040 OVC048 21/20 A3003 RMK A01
KRNC 231015Z AUTO 00000KT 10SM BKN043 BKN048 OVC060 21/20 A3002 RMK A01
KRNC 230955Z AUTO 00000KT 10SM SCT041 BKN050 OVC095 21/20 A3002 RMK A01
KRNC 230935Z AUTO 00000KT 9SM FEW002 SCT043 BKN065 21/20 A3002 RMK A01
KRNC 230915Z AUTO 00000KT 10SM FEW039 SCT047 BKN055 21/20 A3002 RMK A01
KRNC 230855Z AUTO 00000KT 10SM BKN050 OVC070 21/20 A3002 RMK A01 P0001
KRNC 230835Z AUTO 00000KT 10SM FEW004 BKN049 OVC075 21/20 A3001 RMK A01
KRNC 230815Z AUTO 00000KT 6SM BR FEW031 SCT044 BKN050 21/20 A3002 RMK A01
KRNC 230755Z AUTO 00000KT 10SM BKN049 BKN070 OVC080 21/20 A3002 RMK A01
KRNC 230735Z AUTO 06004KT 10SM BKN050 BKN060 OVC070 21/20 A3003 RMK A01
KRNC 230715Z AUTO 00000KT 10SM FEW004 BKN050 OVC075 21/20 A3004 RMK A01
KRNC 230655Z AUTO VRB03KT 7SM SCT005 BKN060 OVC075 21/20 A3005 RMK A01 P0002
KRNC 230635Z AUTO 08004KT 9SM SCT008 BKN030 OVC075 21/20 A3005 RMK A01
KRNC 230615Z AUTO 11004KT 4SM BR SCT007 BKN037 OVC070 21/20 A3006 RMK A01
KRNC 230555Z AUTO 00000KT 10SM FEW034 SCT044 BKN055 21/20 A3007 RMK A01
KRNC 230535Z AUTO 00000KT 8SM SCT039 BKN065 OVC080 21/20 A3007 RMK A01
KRNC 230515Z AUTO 00000KT 10SM FEW008 BKN060 OVC080 21/20 A3007 RMK A01
KRNC 230455Z AUTO 02003KT 6SM BR SCT010 BKN033 OVC060 21/20 A3007 RMK A01 P0001
KRNC 230435Z AUTO 00000G11KT 9SM OVC010 21/20 A3008 RMK A01
KRNC 230415Z AUTO 00000KT 10SM OVC009 21/20 A3008 RMK A01
KRNC 230355Z AUTO 33006G12KT 10SM OVC007 21/20 A3008 RMK A01
KRNC 230335Z AUTO 31006KT 10SM OVC005 22/21 A3008 RMK A01
KRNC 230315Z AUTO 31004KT 10SM OVC005 22/21 A3008 RMK A01
KRNC 230255Z AUTO 00000KT 10SM OVC006 22/21 A3007 RMK A01
KRNC 230235Z AUTO 05004KT 10SM OVC006 22/21 A3006 RMK A01
KRNC 230215Z AUTO 05005KT 10SM OVC006 22/21 A3006 RMK A01
KRNC 230155Z AUTO 05006KT 10SM OVC007 22/21 A3006 RMK A01
KRNC 230135Z AUTO 04007KT 10SM OVC007 22/21 A3006 RMK A01
KRNC 230115Z AUTO 04005KT 10SM OVC008 23/21 A3006 RMK A01
KRNC 230055Z AUTO 04007KT 10SM OVC009 23/21 A3005 RMK A01
KRNC 230035Z AUTO 04006KT 10SM OVC009 23/21 A3005 RMK A01
KRNC 230015Z AUTO 04005KT 10SM OVC009 23/21 A3005 RMK A01
KRNC 222355Z AUTO 04009KT 10SM OVC010 23/21 A3005 RMK A01
KRNC 222335Z AUTO 05007KT 10SM OVC010 23/21 A3005 RMK A01
KRNC 222315Z AUTO 03006KT 10SM BKN011 23/21 A3005 RMK A01
KRNC 222255Z AUTO 04007KT 10SM BKN011 23/21 A3005 RMK A01
KRNC 222235Z AUTO 04010KT 10SM BKN012 23/21 A3004 RMK A01
KRNC 222215Z AUTO 07009KT 10SM BKN012 BKN110 24/22 A3004 RMK A01
KRNC 222155Z AUTO 03010KT 10SM FEW013 FEW055 SCT080 25/22 A3003 RMK A01
KRNC 222135Z AUTO 01008KT 10SM SCT055 BKN100 BKN120 25/22 A3003 RMK A01
KRNC 222115Z AUTO 01006KT 10SM BKN110 26/22 A3002 RMK A01
KRNC 222055Z AUTO 01005KT 10SM FEW120 26/22 A3001 RMK A01
KRNC 222035Z AUTO 34006KT 10SM FEW120 26/23 A3002 RMK A01
KRNC 222015Z AUTO 33006KT 10SM SCT080 26/23 A3002 RMK A01
KRNC 221955Z AUTO 32009KT 10SM FEW050 BKN080 BKN090 27/22 A3003 RMK A01
KRNC 221935Z AUTO 21004KT 10SM BKN080 28/21 A3003 RMK A01
KRNC 221915Z AUTO VRB04KT 10SM BKN080 29/21 A3003 RMK A01
KRNC 221855Z AUTO 22007KT 10SM FEW037 FEW075 SCT085 30/21 A3005 RMK A01
KRNC 221835Z AUTO 00000KT 10SM CLR 30/21 A3005 RMK A01
KRNC 221815Z AUTO VRB04KT 10SM FEW075 FEW120 29/21 A3007 RMK A01
KRNC 221755Z AUTO VRB04KT 10SM BKN075 29/21 A3007 RMK A01
KRNC 221735Z AUTO 00000KT 10SM BKN075 BKN085 29/22 A3009 RMK A01
KRNC 221715Z AUTO 24005KT 10SM FEW049 SCT075 28/21 A3010 RMK A01